Time;durP1;ratioP1;P1;durP2;ratioP2;P2;SDS_P1;SDS_P2;PMS_P1;PMS_P2;Temp;Humidity;BMP_temperature;BMP_pressure;BME280_temperature;BME280_humidity;BME280_pressure;Samples;Min_cycle;Max_cycle;Signal;HPM_P1;HPM_P2
2022/04/12 03:50:44;;;;;;;9.20;5.87;;;;;;;4.93;59.44;100995.25;5605639;31;86181;-56
2022/04/12 03:53:47;;;;;;;11.85;6.28;;;;;;;4.93;59.44;100995.25;5583500;31;33350;-57
2022/04/12 03:56:49;;;;;;;11.10;6.68;;;;;;;4.35;60.33;100998.50;5583889;31;33519;-57
2022/04/12 03:59:52;;;;;;;10.95;6.43;;;;;;;4.28;60.27;101001.25;5583451;31;33705;-57
2022/04/12 04:02:55;;;;;;;10.48;6.43;;;;;;;4.36;60.39;101006.22;5583495;32;33767;-57
2022/04/12 04:05:57;;;;;;;10.50;5.65;;;;;;;4.40;60.54;101002.13;5583478;31;33732;-57
2022/04/12 04:08:59;;;;;;;13.18;7.80;;;;;;;4.47;59.96;100997.53;5584630;31;33892;-56
2022/04/12 04:12:03;;;;;;;15.23;8.93;;;;;;;4.40;59.95;101006.59;5599582;31;33558;-57
2022/04/12 04:15:11;;;;;;;13.93;7.95;;;;;;;4.37;59.80;101013.19;5597248;31;33821;-57
2022/04/12 04:18:14;;;;;;;11.85;7.22;;;;;;;4.39;60.27;101016.41;5588361;31;33636;-57
2022/04/12 04:21:16;;;;;;;12.15;6.95;;;;;;;4.43;60.12;101011.47;5583434;32;33608;-57
2022/04/12 04:24:18;;;;;;;9.35;6.25;;;;;;;4.51;60.01;101023.63;5588041;31;33571;-57
2022/04/12 04:27:20;;;;;;;10.93;6.20;;;;;;;4.48;60.02;101016.94;5585112;31;33550;-57
2022/04/12 04:30:23;;;;;;;8.77;5.82;;;;;;;4.43;60.28;101014.13;5582942;31;34004;-57
2022/04/12 04:33:25;;;;;;;8.23;5.07;;;;;;;4.44;60.24;101013.09;5582667;32;33872;-57
2022/04/12 04:36:28;;;;;;;8.27;5.43;;;;;;;4.35;60.19;101019.75;5581931;32;33634;-57
2022/04/12 04:39:30;;;;;;;9.10;5.65;;;;;;;4.44;59.89;101023.72;5583084;31;34241;-57
2022/04/12 04:42:33;;;;;;;9.15;5.15;;;;;;;4.45;60.25;101026.13;5581597;31;33951;-57
2022/04/12 04:45:35;;;;;;;11.38;5.40;;;;;;;4.51;60.38;101019.13;5582798;32;33692;-57
2022/04/12 04:48:38;;;;;;;11.88;5.28;;;;;;;4.58;60.42;101016.41;5579688;31;33743;-57
2022/04/12 04:51:41;;;;;;;12.13;6.50;;;;;;;4.59;60.56;101023.31;5578735;32;34224;-57
2022/04/12 04:54:43;;;;;;;10.80;6.10;;;;;;;4.63;60.19;101024.47;5578846;32;34355;-57
2022/04/12 04:57:47;;;;;;;12.30;7.70;;;;;;;4.78;59.79;101027.56;5581506;32;33706;-57
2022/04/12 05:00:49;;;;;;;10.80;6.80;;;;;;;4.84;59.58;101033.81;5574134;31;33640;-57
2022/04/12 05:03:51;;;;;;;12.90;7.18;;;;;;;4.97;59.67;101033.63;5568698;32;33550;-57
2022/04/12 05:06:54;;;;;;;10.73;6.03;;;;;;;5.13;60.38;101034.81;5569142;32;34402;-57
2022/04/12 05:09:56;;;;;;;10.60;6.55;;;;;;;5.42;59.68;101041.09;5569656;32;33413;-57
2022/04/12 05:13:00;;;;;;;14.25;6.82;;;;;;;5.56;58.81;101042.53;5558820;32;34288;-57
2022/04/12 05:16:03;;;;;;;15.25;6.45;;;;;;;5.62;59.29;101046.91;5562743;32;33666;-57
2022/04/12 05:19:09;;;;;;;13.13;6.87;;;;;;;5.71;59.62;101052.69;5567865;32;33965;-57
2022/04/12 05:22:11;;;;;;;11.43;6.90;;;;;;;5.85;59.41;101054.06;5565457;32;33664;-57
2022/04/12 05:25:14;;;;;;;19.98;7.70;;;;;;;5.95;59.68;101045.53;5554979;32;34294;-57
2022/04/12 05:28:17;;;;;;;16.35;7.95;;;;;;;6.21;59.06;101048.75;5560737;32;33768;-57
2022/04/12 05:31:20;;;;;;;13.73;8.30;;;;;;;6.45;58.74;101054.81;5562999;32;33314;-57
2022/04/12 05:34:22;;;;;;;14.82;8.05;;;;;;;6.79;57.26;101051.25;5568834;32;34811;-57
2022/04/12 05:37:24;;;;;;;10.98;8.85;;;;;;;7.04;58.51;101053.53;5565472;32;34302;-57
2022/04/12 05:40:26;;;;;;;14.75;9.82;;;;;;;7.23;56.07;101051.47;5569239;32;33299;-57
2022/04/12 05:43:29;;;;;;;12.57;8.88;;;;;;;7.43;56.22;101055.53;5567545;32;33711;-57
2022/04/12 05:46:31;;;;;;;16.10;9.30;;;;;;;7.55;55.27;101058.94;5555263;32;33666;-57
2022/04/12 05:49:33;;;;;;;11.75;8.57;;;;;;;7.82;54.03;101060.94;5567677;32;33490;-57
2022/04/12 05:52:35;;;;;;;11.30;8.65;;;;;;;7.77;52.71;101061.66;5565623;31;33698;-57
2022/04/12 05:55:38;;;;;;;15.50;8.57;;;;;;;7.74;52.90;101065.59;5568929;32;34381;-57
2022/04/12 05:58:40;;;;;;;13.20;8.13;;;;;;;7.72;52.55;101059.72;5568456;32;34411;-57
2022/04/12 06:01:43;;;;;;;13.60;7.78;;;;;;;7.99;52.97;101067.84;5566400;32;33726;-57
2022/04/12 06:04:45;;;;;;;13.85;8.10;;;;;;;7.87;51.29;101064.47;5565767;32;33570;-57
2022/04/12 06:07:48;;;;;;;13.38;8.27;;;;;;;7.88;51.90;101076.78;5567819;32;34228;-57
2022/04/12 06:10:50;;;;;;;10.77;7.40;;;;;;;8.17;50.61;101071.28;5567041;32;33585;-57
2022/04/12 06:13:53;;;;;;;11.30;6.95;;;;;;;8.52;49.68;101070.16;5566520;31;33613;-57
2022/04/12 06:16:55;;;;;;;15.25;7.30;;;;;;;8.45;48.47;101071.16;5566370;32;34115;-57
2022/04/12 06:20:01;;;;;;;12.70;7.20;;;;;;;8.51;49.22;101079.22;5567288;32;33597;-57
2022/04/12 06:23:03;;;;;;;10.00;6.65;;;;;;;8.52;48.77;101076.31;5568290;32;33524;-57
2022/04/12 06:26:05;;;;;;;9.95;7.15;;;;;;;8.74;48.65;101078.97;5567988;32;34229;-57
2022/04/12 06:29:07;;;;;;;12.02;7.55;;;;;;;9.09;47.00;101085.75;5564856;31;34328;-57
2022/04/12 06:32:09;;;;;;;13.70;8.20;;;;;;;9.22;46.48;101087.19;5568708;32;34299;-57
2022/04/12 06:35:13;;;;;;;14.80;7.85;;;;;;;9.07;46.29;101077.97;5556238;32;34409;-57
2022/04/12 06:38:15;;;;;;;10.93;7.53;;;;;;;9.14;47.12;101093.81;5557729;32;34940;-57
2022/04/12 06:41:17;;;;;;;13.25;7.55;;;;;;;9.08;46.50;101092.16;5568361;32;33610;-57
2022/04/12 06:44:19;;;;;;;13.43;8.88;;;;;;;9.26;47.52;101091.78;5560351;32;33789;-57
2022/04/12 06:47:22;;;;;;;17.00;8.65;;;;;;;9.35;46.60;101089.47;5554808;32;34387;-57
2022/04/12 06:50:25;;;;;;;12.93;8.43;;;;;;;9.65;44.84;101096.94;5567002;32;33348;-57
2022/04/12 06:53:28;;;;;;;14.48;8.55;;;;;;;9.74;43.41;101092.72;5567303;32;33937;-57
2022/04/12 06:56:30;;;;;;;12.63;8.07;;;;;;;9.72;43.69;101092.16;5567260;32;33757;-57
2022/04/12 06:59:34;;;;;;;17.55;8.50;;;;;;;9.83;44.26;101088.50;5562100;31;34425;-57
2022/04/12 07:02:37;;;;;;;11.93;8.05;;;;;;;9.78;43.61;101090.34;5548598;32;33668;-57
2022/04/12 07:05:40;;;;;;;18.48;9.43;;;;;;;9.84;45.24;101083.97;5548671;32;34429;-57
2022/04/12 07:08:42;;;;;;;13.95;9.50;;;;;;;9.74;44.44;101089.25;5556932;32;33100;-57
2022/04/12 07:11:45;;;;;;;13.52;9.23;;;;;;;9.75;44.13;101091.66;5565838;32;33590;-57
2022/04/12 07:14:47;;;;;;;14.02;9.13;;;;;;;9.80;46.28;101089.03;5567681;32;33638;-57
2022/04/12 07:17:55;;;;;;;12.60;9.25;;;;;;;9.96;44.70;101091.78;5554527;32;33995;-57
2022/04/12 07:20:57;;;;;;;17.77;9.77;;;;;;;10.16;44.93;101094.56;5548879;32;33852;-57
2022/04/12 07:23:59;;;;;;;17.60;9.25;;;;;;;10.40;43.30;101096.88;5549163;32;34285;-57
2022/04/12 07:27:02;;;;;;;15.45;8.48;;;;;;;10.46;43.53;101096.66;5563376;32;33616;-57
2022/04/12 07:30:06;;;;;;;14.57;9.10;;;;;;;10.56;42.61;101096.69;5561762;32;34277;-57
2022/04/12 07:33:08;;;;;;;16.15;9.95;;;;;;;10.63;44.18;101098.31;5548402;32;34169;-57
2022/04/12 07:36:11;;;;;;;13.95;8.82;;;;;;;10.63;43.14;101095.63;5567537;32;34381;-57
2022/04/12 07:39:16;;;;;;;12.75;8.43;;;;;;;10.70;43.22;101098.88;5567769;32;33726;-57
2022/04/12 07:42:20;;;;;;;17.02;9.23;;;;;;;10.72;43.68;101099.41;5566363;32;33726;-57
2022/04/12 07:45:22;;;;;;;15.07;8.90;;;;;;;10.75;42.33;101099.69;5566132;32;34496;-57
2022/04/12 07:48:24;;;;;;;13.60;8.60;;;;;;;10.77;43.39;101097.56;5567025;32;33605;-57
2022/04/12 07:51:26;;;;;;;14.93;7.43;;;;;;;10.77;44.32;101102.94;5566965;32;33174;-57
2022/04/12 07:54:29;;;;;;;11.10;7.82;;;;;;;10.95;42.54;101095.47;5562922;32;33724;-57
2022/04/12 07:57:31;;;;;;;12.40;7.80;;;;;;;11.01;41.86;101105.94;5551991;32;33850;-57
2022/04/12 08:00:34;;;;;;;14.38;8.18;;;;;;;11.13;43.12;101103.03;5566942;32;33582;-57
2022/04/12 08:03:37;;;;;;;11.02;7.57;;;;;;;10.94;42.17;101102.72;5566117;32;33667;-57
2022/04/12 08:06:39;;;;;;;13.05;7.75;;;;;;;11.04;41.38;101101.94;5563869;32;33685;-57
2022/04/12 08:09:41;;;;;;;11.35;7.78;;;;;;;11.18;41.80;101108.37;5556156;32;33571;-57
2022/04/12 08:12:45;;;;;;;13.00;7.87;;;;;;;11.14;42.17;101103.81;5562893;32;34366;-57
2022/04/12 08:15:48;;;;;;;10.85;7.72;;;;;;;11.21;42.53;101104.37;5563415;32;33758;-57
2022/04/12 08:18:50;;;;;;;11.05;6.85;;;;;;;11.34;42.33;101111.09;5565539;32;34410;-57
2022/04/12 08:21:53;;;;;;;12.95;6.78;;;;;;;11.57;41.17;101107.87;5562437;32;34477;-57
2022/04/12 08:24:55;;;;;;;13.68;6.80;;;;;;;11.63;41.15;101111.37;5565316;32;33619;-57
2022/04/12 08:27:58;;;;;;;10.63;7.00;;;;;;;11.77;40.90;101110.56;5559490;32;34297;-57
2022/04/12 08:31:00;;;;;;;11.00;6.40;;;;;;;11.60;40.36;101103.88;5564749;32;33640;-57
2022/04/12 08:34:03;;;;;;;8.75;5.93;;;;;;;11.68;41.95;101106.00;5564742;32;34298;-57
2022/04/12 08:37:06;;;;;;;6.05;4.25;;;;;;;11.80;39.17;101111.91;5561869;32;34281;-57
2022/04/12 08:40:08;;;;;;;8.05;4.97;;;;;;;11.95;34.78;101108.41;5568357;31;33641;-57
2022/04/12 08:43:14;;;;;;;7.87;5.43;;;;;;;11.92;36.54;101106.25;5563682;32;33641;-57
2022/04/12 08:46:17;;;;;;;8.68;5.00;;;;;;;11.98;38.16;101103.28;5560529;32;33657;-57
2022/04/12 08:49:20;;;;;;;7.55;4.87;;;;;;;12.26;36.79;101103.00;5565969;32;33639;-57
2022/04/12 08:52:24;;;;;;;12.63;5.47;;;;;;;12.35;35.80;101104.00;5563800;32;33034;-57
2022/04/12 08:55:26;;;;;;;8.73;5.12;;;;;;;12.43;36.60;101108.84;5559534;32;33419;-57
2022/04/12 08:58:29;;;;;;;7.87;4.80;;;;;;;12.61;37.78;101104.72;5563848;32;33847;-57
2022/04/12 09:01:31;;;;;;;8.30;5.25;;;;;;;12.69;34.21;101107.66;5560942;32;33809;-57
2022/04/12 09:04:34;;;;;;;8.52;5.12;;;;;;;12.69;33.12;101099.59;5565412;32;33656;-57
2022/04/12 09:07:45;;;;;;;8.20;4.68;;;;;;;12.63;33.75;101106.06;5559324;32;33947;-57
2022/04/12 09:10:57;;;;;;;7.97;5.12;;;;;;;12.72;34.83;101098.22;5565841;32;34018;-57
2022/04/12 09:14:00;;;;;;;8.40;5.07;;;;;;;12.81;33.28;101103.81;5568025;32;33669;-57
2022/04/12 09:17:04;;;;;;;9.45;5.32;;;;;;;12.90;31.83;101094.09;5558277;32;33655;-57
2022/04/12 09:20:14;;;;;;;7.25;4.55;;;;;;;12.86;32.70;101093.84;5559079;32;34342;-57
2022/04/12 09:23:16;;;;;;;6.68;4.97;;;;;;;12.84;32.98;101096.00;5568991;32;33242;-57
2022/04/12 09:26:26;;;;;;;7.75;4.75;;;;;;;12.81;34.77;101087.69;5555008;31;33995;-57
2022/04/12 09:29:30;;;;;;;9.13;5.15;;;;;;;12.83;33.48;101080.13;5561230;32;33987;-57
2022/04/12 09:32:37;;;;;;;9.07;5.72;;;;;;;12.91;32.36;101068.78;5567946;32;33758;-57
2022/04/12 09:35:39;;;;;;;8.35;5.35;;;;;;;12.83;33.58;101075.56;5552679;32;33741;-57
2022/04/12 09:38:43;;;;;;;9.07;5.55;;;;;;;13.07;34.68;101078.38;5561851;32;33678;-57
2022/04/12 09:41:49;;;;;;;8.77;5.18;;;;;;;13.13;33.83;101071.06;5561574;32;33748;-57
2022/04/12 09:45:02;;;;;;;11.07;5.97;;;;;;;13.12;33.22;101070.25;5553500;32;34366;-57
2022/04/12 09:48:06;;;;;;;8.25;5.80;;;;;;;13.13;33.39;101063.78;5559519;32;33575;-58
2022/04/12 09:51:28;;;;;;;10.45;5.70;;;;;;;13.13;32.27;101061.09;5568045;32;34360;-57
2022/04/12 09:54:32;;;;;;;11.02;6.30;;;;;;;13.21;34.59;101062.41;5567016;32;33821;-57
2022/04/12 09:57:38;;;;;;;10.05;5.53;;;;;;;13.17;34.34;101061.34;5552345;32;33457;-57
2022/04/12 10:00:47;;;;;;;;;;;;;;;13.22;33.01;101063.22;5561615;32;33885;-57
2022/04/12 10:03:52;;;;;;;10.80;5.53;;;;;;;13.33;34.75;101053.97;5569338;32;34030;-57
2022/04/12 10:06:56;;;;;;;9.77;5.82;;;;;;;13.44;33.94;101058.19;5568100;32;33265;-57
2022/04/12 10:09:58;;;;;;;7.65;5.62;;;;;;;13.54;34.37;101049.22;5567919;32;34340;-57
2022/04/12 10:13:01;;;;;;;9.48;6.37;;;;;;;13.45;35.48;101046.34;5566688;32;33995;-57
2022/04/12 10:16:04;;;;;;;8.80;6.18;;;;;;;13.50;32.08;101040.09;5562178;32;33643;-57
2022/04/12 10:19:07;;;;;;;10.20;6.32;;;;;;;13.64;33.21;101035.66;5567258;32;33734;-57
2022/04/12 10:22:10;;;;;;;8.80;5.50;;;;;;;13.69;33.12;101032.12;5550775;32;33828;-57
2022/04/12 10:25:17;;;;;;;9.68;5.55;;;;;;;13.70;33.16;101037.22;5559648;32;33648;-57
2022/04/12 10:28:21;;;;;;;9.07;5.97;;;;;;;13.69;33.47;101037.50;5567746;31;34453;-58
2022/04/12 10:31:26;;;;;;;10.02;6.50;;;;;;;13.73;33.56;101027.75;5555456;32;34357;-57
2022/04/12 10:34:58;;;;;;;11.80;6.03;;;;;;;13.65;34.60;101025.69;5563100;32;35244;-57
2022/04/12 10:38:04;;;;;;;12.95;6.10;;;;;;;13.56;34.30;101012.84;5554111;32;34317;-58
2022/04/12 10:41:29;;;;;;;7.70;5.75;;;;;;;13.63;34.20;101013.28;5565191;32;34406;-57
2022/04/12 10:44:40;;;;;;;9.85;6.45;;;;;;;13.68;35.13;101008.97;5566729;32;33673;-57
2022/04/12 10:47:43;;;;;;;9.23;5.65;;;;;;;13.91;32.42;101008.16;5565490;32;33632;-56
2022/04/12 10:50:46;;;;;;;9.68;5.65;;;;;;;13.89;35.59;101013.03;5557797;32;33865;-57
2022/04/12 10:53:52;;;;;;;13.13;6.37;;;;;;;14.03;31.97;101008.56;5558459;32;33697;-57
2022/04/12 10:57:20;;;;;;;9.65;6.18;;;;;;;13.97;33.12;101000.81;5557037;32;34458;-57
2022/04/12 11:00:23;;;;;;;10.82;6.25;;;;;;;13.79;31.58;100996.97;5554981;32;33604;-57
2022/04/12 11:03:41;;;;;;;10.88;5.60;;;;;;;13.70;32.04;100996.00;5559370;32;33276;-57
2022/04/12 11:06:46;;;;;;;8.52;5.70;;;;;;;13.85;31.37;100996.63;5553195;32;34847;-58
2022/04/12 11:10:19;;;;;;;9.65;5.87;;;;;;;13.93;31.80;101003.28;5568211;32;33642;-57
2022/04/12 11:13:23;;;;;;;9.38;5.60;;;;;;;13.76;32.08;100986.78;5566164;32;33856;-57
2022/04/12 11:16:26;;;;;;;8.73;5.45;;;;;;;13.75;32.36;100985.19;5560903;32;33799;-58
2022/04/12 11:19:41;;;;;;;10.68;5.78;;;;;;;13.82;32.10;100972.16;5549782;32;33661;-58
2022/04/12 11:22:45;;;;;;;10.15;5.32;;;;;;;14.00;32.68;100957.91;5563060;32;33721;-57
2022/04/12 11:25:51;;;;;;;8.77;5.78;;;;;;;14.12;35.04;100968.28;5567468;32;33675;-57
2022/04/12 11:28:56;;;;;;;8.15;5.32;;;;;;;14.25;35.48;100964.06;5563752;32;33759;-57
2022/04/12 11:31:59;;;;;;;11.68;6.12;;;;;;;14.38;34.90;100966.06;5558888;32;34424;-58
2022/04/12 11:35:01;;;;;;;8.43;5.62;;;;;;;14.42;31.67;100960.88;5552769;32;33215;-57
2022/04/12 11:38:04;;;;;;;7.35;5.03;;;;;;;14.37;31.39;100952.84;5556336;32;33470;-57
2022/04/12 11:41:06;;;;;;;8.57;5.43;;;;;;;14.29;33.03;100952.41;5556855;32;33960;-57
2022/04/12 11:44:09;;;;;;;8.38;5.80;;;;;;;14.41;32.51;100957.38;5559773;32;34353;-57
2022/04/12 11:47:11;;;;;;;10.50;5.80;;;;;;;14.38;34.22;100955.25;5548170;32;33716;-57
2022/04/12 11:50:18;;;;;;;10.25;6.03;;;;;;;14.39;32.94;100948.75;5557834;32;33728;-57
2022/04/12 11:53:24;;;;;;;9.90;6.30;;;;;;;14.44;31.18;100948.72;5559368;32;33427;-58
2022/04/12 11:56:27;;;;;;;8.23;5.82;;;;;;;14.35;31.35;100950.44;5566152;32;34208;-58
2022/04/12 11:59:37;;;;;;;9.77;6.07;;;;;;;14.38;32.05;100952.56;5563509;32;34280;-57
2022/04/12 12:02:40;;;;;;;10.20;5.78;;;;;;;14.44;31.79;100942.50;5558277;32;33775;-57
2022/04/12 12:05:45;;;;;;;8.50;5.80;;;;;;;14.43;32.79;100938.19;5566397;32;34056;-57
2022/04/12 12:08:48;;;;;;;10.87;5.77;;;;;;;14.45;32.84;100939.50;5552653;32;33798;-57
2022/04/12 12:11:50;;;;;;;9.30;5.85;;;;;;;14.59;33.17;100936.09;5549065;32;33588;-57
2022/04/12 12:14:52;;;;;;;8.40;6.18;;;;;;;14.69;31.69;100938.66;5550218;32;34282;-57
2022/04/12 12:17:59;;;;;;;9.02;5.95;;;;;;;14.59;32.05;100936.91;5565025;32;33885;-57
2022/04/12 12:21:01;;;;;;;10.82;6.20;;;;;;;14.49;33.33;100937.81;5569184;32;33839;-57
2022/04/12 12:24:07;;;;;;;9.15;5.60;;;;;;;14.54;32.51;100937.00;5549035;32;33806;-58
2022/04/12 12:27:09;;;;;;;9.17;5.43;;;;;;;14.68;33.76;100928.97;5561479;31;33932;-57
2022/04/12 12:30:17;;;;;;;10.07;5.68;;;;;;;14.67;33.31;100930.84;5569345;32;34310;-58
2022/04/12 12:33:23;;;;;;;13.18;5.57;;;;;;;14.86;31.72;100925.41;5569436;32;33781;-57
2022/04/12 12:36:26;;;;;;;9.43;6.00;;;;;;;14.90;31.25;100920.22;5569205;32;33738;-57
2022/04/12 12:39:28;;;;;;;10.02;6.45;;;;;;;14.90;31.72;100921.03;5569489;32;34499;-57
2022/04/12 12:42:37;;;;;;;13.73;6.25;;;;;;;14.89;31.66;100915.91;5569131;32;33634;-57
2022/04/12 12:45:42;;;;;;;9.60;5.72;;;;;;;14.92;31.96;100916.13;5568628;32;33259;-57
2022/04/12 12:48:45;;;;;;;8.88;6.03;;;;;;;14.95;31.50;100910.12;5569370;32;33623;-58
2022/04/12 12:51:47;;;;;;;8.35;5.60;;;;;;;14.86;35.98;100914.59;5569423;32;33712;-57
2022/04/12 12:54:55;;;;;;;9.93;7.15;;;;;;;14.93;33.85;100908.81;5557114;32;33595;-57
2022/04/12 12:58:09;;;;;;;8.75;5.90;;;;;;;14.80;32.54;100905.00;5568722;32;33753;-57
2022/04/12 13:01:11;;;;;;;11.23;6.28;;;;;;;14.76;33.42;100899.38;5569509;32;34347;-57
2022/04/12 13:04:36;;;;;;;8.60;6.05;;;;;;;14.74;34.79;100904.28;5569248;32;34058;-57
2022/04/12 13:07:40;;;;;;;8.52;6.12;;;;;;;14.80;33.48;100897.72;5563057;32;33644;-58
2022/04/12 13:10:42;;;;;;;8.55;6.22;;;;;;;14.94;33.29;100905.84;5569408;32;33667;-57
2022/04/12 13:13:44;;;;;;;8.15;5.90;;;;;;;15.02;31.55;100897.06;5569437;32;34400;-57
2022/04/12 13:16:47;;;;;;;10.35;6.53;;;;;;;15.00;32.17;100893.88;5569337;32;34955;-58
2022/04/12 13:19:49;;;;;;;10.15;5.78;;;;;;;14.96;33.43;100883.94;5569394;32;33667;-57
2022/04/12 13:22:52;;;;;;;11.18;6.45;;;;;;;15.01;34.22;100884.66;5568911;32;34414;-57
2022/04/12 13:25:54;;;;;;;9.63;6.35;;;;;;;15.09;32.29;100879.66;5552491;32;33631;-57
2022/04/12 13:28:56;;;;;;;12.18;6.20;;;;;;;15.09;34.06;100880.47;5554949;32;33679;-57
2022/04/12 13:31:58;;;;;;;12.07;6.40;;;;;;;15.27;35.24;100876.09;5568418;32;33637;-58
2022/04/12 13:35:08;;;;;;;11.90;6.68;;;;;;;15.41;33.31;100874.19;5567453;32;33725;-58
2022/04/12 13:38:10;;;;;;;9.45;6.87;;;;;;;15.37;32.43;100870.50;5568452;32;34921;-58
2022/04/12 13:41:13;;;;;;;10.85;6.12;;;;;;;15.31;31.68;100869.00;5560492;32;32277;-58
2022/04/12 13:44:16;;;;;;;9.10;6.32;;;;;;;15.22;32.75;100868.06;5567151;32;33668;-57
2022/04/12 13:47:32;;;;;;;9.87;5.93;;;;;;;15.33;32.85;100869.50;5568095;32;34436;-57
2022/04/12 13:50:34;;;;;;;8.23;5.87;;;;;;;15.33;33.66;100861.41;5565840;32;34803;-58
2022/04/12 13:53:36;;;;;;;11.82;6.57;;;;;;;15.41;34.25;100857.97;5568817;32;33700;-58
2022/04/12 13:56:38;;;;;;;10.77;7.57;;;;;;;15.39;33.23;100859.38;5550983;32;34413;-58
2022/04/12 13:59:41;;;;;;;10.80;6.62;;;;;;;15.45;33.43;100858.19;5560165;32;33859;-58
2022/04/12 14:02:43;;;;;;;10.10;6.10;;;;;;;15.56;32.82;100867.66;5567468;32;33657;-58
2022/04/12 14:05:46;;;;;;;12.48;7.32;;;;;;;15.68;31.57;100864.50;5566442;32;33790;-57
2022/04/12 14:08:48;;;;;;;9.82;6.62;;;;;;;15.63;31.36;100857.28;5568784;32;34446;-58
2022/04/12 14:11:51;;;;;;;12.05;7.05;;;;;;;15.44;33.56;100856.59;5564447;32;33938;-57
2022/04/12 14:14:54;;;;;;;8.82;6.25;;;;;;;15.42;32.08;100850.69;5568496;32;33146;-58
2022/04/12 14:17:58;;;;;;;12.88;6.07;;;;;;;15.47;31.88;100851.38;5567672;32;33884;-57
2022/04/12 14:21:11;;;;;;;11.68;6.07;;;;;;;15.64;33.59;100849.97;5567528;32;33666;-57
2022/04/12 14:24:20;;;;;;;11.60;6.03;;;;;;;15.74;34.78;100847.06;5568844;32;33483;-58
2022/04/12 14:27:24;;;;;;;9.88;6.40;;;;;;;15.76;31.22;100849.47;5563024;32;33715;-58
2022/04/12 14:30:26;;;;;;;10.90;7.03;;;;;;;15.65;33.31;100848.84;5554225;32;33666;-58
2022/04/12 14:33:29;;;;;;;11.85;6.62;;;;;;;15.66;30.86;100858.56;5566935;32;33638;-58
2022/04/12 14:36:31;;;;;;;11.95;5.82;;;;;;;15.58;31.95;100846.56;5564619;32;33624;-58
2022/04/12 14:39:33;;;;;;;9.43;6.20;;;;;;;15.48;31.43;100844.06;5562512;32;34225;-58
2022/04/12 14:42:42;;;;;;;11.85;6.60;;;;;;;15.47;32.47;100847.88;5565801;32;33823;-58
2022/04/12 14:45:44;;;;;;;10.32;6.03;;;;;;;15.49;31.72;100843.75;5568714;32;33826;-58
2022/04/12 14:48:47;;;;;;;10.20;5.72;;;;;;;15.49;31.26;100845.66;5568638;32;33297;-58
2022/04/12 14:51:49;;;;;;;11.02;6.32;;;;;;;15.55;33.73;100840.97;5568449;32;33718;-57
2022/04/12 14:54:51;;;;;;;9.88;6.12;;;;;;;15.62;32.81;100844.06;5568385;32;33662;-57
2022/04/12 14:57:53;;;;;;;8.73;6.28;;;;;;;15.58;31.23;100846.56;5563058;32;33436;-58
2022/04/12 15:00:56;;;;;;;10.05;6.68;;;;;;;15.62;31.84;100842.16;5568426;32;33964;-58
2022/04/12 15:03:58;;;;;;;11.55;5.82;;;;;;;15.58;32.44;100838.44;5568755;32;33690;-58
2022/04/12 15:07:01;;;;;;;11.05;6.78;;;;;;;15.65;31.67;100836.13;5568686;32;33766;-58
2022/04/12 15:10:04;;;;;;;9.65;5.90;;;;;;;15.63;31.95;100842.94;5568113;32;33271;-58
2022/04/12 15:13:09;;;;;;;9.15;6.07;;;;;;;15.75;31.51;100851.38;5568690;32;33574;-58
2022/04/12 15:16:11;;;;;;;8.02;5.60;;;;;;;15.78;33.17;100855.38;5568638;32;34272;-58
2022/04/12 15:19:14;;;;;;;8.93;6.18;;;;;;;15.71;33.28;100853.09;5568675;32;33645;-58
2022/04/12 15:22:16;;;;;;;9.63;5.62;;;;;;;15.74;32.27;100852.47;5567703;32;33653;-58
2022/04/12 15:25:19;;;;;;;8.77;5.50;;;;;;;15.66;32.79;100850.44;5568498;32;33809;-58
2022/04/12 15:28:21;;;;;;;10.73;5.80;;;;;;;15.68;31.00;100843.66;5554967;31;34362;-58
2022/04/12 15:31:24;;;;;;;9.82;5.60;;;;;;;15.55;32.33;100832.84;5548865;32;34353;-57
